createdAt,value
2023-04-11T00:02:35.525Z,180
2023-04-11T00:06:37.341Z,179
2023-04-11T00:12:41.930Z,165
2023-04-11T00:16:44.609Z,212
2023-04-11T00:20:47.339Z,220
2023-04-11T00:22:48.808Z,268
2023-04-11T00:26:51.793Z,191
2023-04-11T00:28:53.349Z,217
2023-04-11T00:30:54.164Z,227
2023-04-11T00:32:55.217Z,285
2023-04-11T00:38:59.184Z,224
2023-04-11T00:45:03.011Z,202
2023-04-11T00:49:05.703Z,360
2023-04-11T00:55:10.098Z,231
2023-04-11T00:59:13.232Z,221
2023-04-11T01:01:14.545Z,213
2023-04-11T01:05:17.250Z,215
2023-04-11T01:09:19.611Z,223
2023-04-11T01:11:20.741Z,231
2023-04-11T01:15:23.756Z,235
2023-04-11T01:21:28.134Z,231
2023-04-11T01:25:30.840Z,203
2023-04-11T01:27:32.121Z,206
2023-04-11T01:31:35.230Z,227
2023-04-11T01:37:39.121Z,236
2023-04-11T01:41:42.013Z,194
2023-04-11T01:43:43.596Z,233
2023-04-11T01:47:46.640Z,205
2023-04-11T01:51:48.970Z,202
2023-04-11T01:53:50.637Z,187
2023-04-11T01:57:53.594Z,252
2023-04-11T02:03:58.162Z,208
2023-04-11T02:08:00.626Z,216
2023-04-11T02:10:02.009Z,225
2023-04-11T02:14:05.231Z,225
2023-04-11T02:20:08.482Z,309
2023-04-11T02:26:12.362Z,157
2023-04-11T02:30:15.614Z,237
2023-04-11T02:36:19.945Z,236
2023-04-11T02:40:22.470Z,212
2023-04-11T02:44:25.416Z,215
2023-04-11T02:46:26.790Z,212
2023-04-11T02:50:29.393Z,212
2023-04-11T02:52:30.959Z,220
2023-04-11T02:56:34.002Z,214
2023-04-11T03:02:38.042Z,212
2023-04-11T03:08:43.205Z,213
2023-04-11T03:12:45.868Z,212
2023-04-11T03:18:50.243Z,212
2023-04-11T03:22:53.599Z,212
2023-04-11T03:24:54.645Z,212
2023-04-11T03:28:56.861Z,212
2023-04-11T03:32:59.628Z,212
2023-04-11T03:35:01.469Z,214
2023-04-11T03:39:03.953Z,314
2023-04-11T03:45:07.968Z,240
2023-04-11T03:49:11.566Z,360
2023-04-11T03:51:12.574Z,334
2023-04-11T03:55:15.917Z,236
2023-04-11T04:01:19.681Z,212
2023-04-11T04:05:22.798Z,246
2023-04-11T04:07:24.303Z,248
2023-04-11T04:11:26.946Z,9
2023-04-11T04:17:31.408Z,220
2023-04-11T04:23:34.848Z,203
2023-04-11T04:27:36.867Z,228
2023-04-11T04:33:41.525Z,263
2023-04-11T04:37:44.707Z,221
2023-04-11T04:39:46.385Z,221
2023-04-11T04:43:49.314Z,241
2023-04-11T04:47:52.009Z,192
2023-04-11T04:49:53.015Z,222
2023-04-11T04:53:55.963Z,324
2023-04-11T04:59:59.456Z,144
2023-04-11T05:04:02.830Z,211
2023-04-11T05:06:03.420Z,211
2023-04-11T05:10:06.769Z,150
2023-04-11T05:16:10.142Z,212
2023-04-11T05:20:13.086Z,360
2023-04-11T05:22:14.141Z,360
2023-04-11T05:26:17.319Z,360
2023-04-11T05:30:19.655Z,187
2023-04-11T05:32:20.807Z,187
2023-04-11T05:36:23.975Z,187
2023-04-11T05:40:26.852Z,187
2023-04-11T05:42:28.325Z,187
2023-04-11T05:43:12.190Z,184
2023-04-11T05:45:13.233Z,187
2023-04-11T05:47:14.765Z,187
2023-04-11T05:53:19.030Z,187
2023-04-11T05:55:20.083Z,187
2023-04-11T05:59:26.488Z,187
2023-04-11T06:03:27.227Z,187
2023-04-11T06:09:33.881Z,186
2023-04-11T06:13:34.979Z,187
2023-04-11T06:19:39.527Z,187
2023-04-11T06:23:42.212Z,187
2023-04-11T06:25:43.661Z,187
2023-04-11T06:29:46.352Z,187
2023-04-11T06:35:50.627Z,187
2023-04-11T06:41:55.521Z,188
2023-04-11T06:45:59.115Z,182
2023-04-11T06:52:04.117Z,153
2023-04-11T06:56:07.023Z,165
2023-04-11T07:02:11.580Z,269
2023-04-11T07:06:13.718Z,219
2023-04-11T07:08:14.961Z,222
2023-04-11T07:12:17.605Z,224
2023-04-11T07:18:21.721Z,156
2023-04-11T07:22:23.973Z,211
2023-04-11T07:24:25.206Z,258
2023-04-11T07:28:28.499Z,231
2023-04-11T07:34:33.739Z,229
2023-04-11T07:38:35.990Z,219
2023-04-11T07:40:37.356Z,219
2023-04-11T07:44:40.269Z,223
2023-04-11T07:48:42.951Z,221
2023-04-11T07:50:44.445Z,219
2023-04-11T07:54:47.543Z,222
2023-04-11T07:58:49.825Z,219
2023-04-11T08:00:51.665Z,219
2023-04-11T08:04:55.004Z,245
2023-04-11T08:06:56.732Z,242
2023-04-11T08:10:59.915Z,240
2023-04-11T08:17:10.036Z,241
2023-04-11T08:21:07.586Z,241
2023-04-11T08:23:08.562Z,241
2023-04-11T08:27:11.078Z,241
2023-04-11T08:33:15.059Z,316
2023-04-11T08:37:17.913Z,219
2023-04-11T08:41:20.927Z,360
2023-04-11T08:43:23.031Z,212
2023-04-11T08:47:25.748Z,139
2023-04-11T08:49:27.350Z,235
2023-04-11T08:51:29.082Z,242
2023-04-11T08:53:30.808Z,138
2023-04-11T08:59:35.667Z,219
2023-04-11T09:01:37.480Z,218
2023-04-11T09:05:39.449Z,224
2023-04-11T09:09:42.385Z,182
2023-04-11T09:15:47.733Z,121
2023-04-11T09:19:50.285Z,323
2023-04-11T09:21:51.308Z,200
2023-04-11T09:25:53.991Z,229
2023-04-11T09:29:57.397Z,221
2023-04-11T09:31:58.612Z,246
2023-04-11T09:36:01.040Z,253
2023-04-11T09:42:04.188Z,119
2023-04-11T09:48:08.214Z,233
2023-04-11T09:52:11.441Z,221
2023-04-11T09:58:16.050Z,203
2023-04-11T10:02:18.272Z,239
2023-04-11T10:04:19.974Z,174
2023-04-11T10:08:22.421Z,215
2023-04-11T10:12:25.111Z,232
2023-04-11T10:14:26.271Z,360
2023-04-11T10:18:29.420Z,219
2023-04-11T10:24:33.360Z,217
2023-04-11T10:28:36.131Z,187
2023-04-11T10:30:37.311Z,360
2023-04-11T10:34:40.696Z,233
2023-04-11T10:40:44.741Z,226
2023-04-11T10:44:46.747Z,231
2023-04-11T10:46:48.315Z,207
2023-04-11T10:50:50.484Z,237
2023-04-11T10:54:54.400Z,205
2023-04-11T10:56:55.302Z,236
2023-04-11T11:00:58.542Z,226
2023-04-11T11:05:01.055Z,230
2023-04-11T11:07:01.983Z,229
2023-04-11T11:11:04.853Z,215
2023-04-11T11:13:06.262Z,217
2023-04-11T11:15:07.205Z,269
2023-04-11T11:17:08.916Z,207
2023-04-11T11:23:12.611Z,360
2023-04-11T11:25:14.045Z,233
2023-04-11T11:29:17.135Z,360
2023-04-11T11:33:20.420Z,235
2023-04-11T11:37:32.265Z,186
2023-04-11T11:39:24.445Z,238
2023-04-11T11:41:26.432Z,157
2023-04-11T11:43:28.831Z,203
2023-04-11T11:49:33.308Z,205
2023-04-11T11:53:36.301Z,214
2023-04-11T11:55:38.019Z,199
2023-04-11T11:57:40.163Z,206
2023-04-11T11:59:41.353Z,293
2023-04-11T12:05:45.337Z,227
2023-04-11T12:07:46.909Z,237
2023-04-11T12:11:49.541Z,244
2023-04-11T12:15:52.829Z,178
2023-04-11T12:21:57.611Z,237
2023-04-11T12:26:00.800Z,123
2023-04-11T12:28:02.634Z,235
2023-04-11T12:28:47.216Z,235
2023-04-11T12:30:48.495Z,212
2023-04-11T12:32:49.427Z,172
2023-04-11T12:36:52.313Z,245
2023-04-11T12:42:57.596Z,245
2023-04-11T12:47:08.627Z,360
2023-04-11T12:49:01.231Z,221
2023-04-11T12:53:03.900Z,251
2023-04-11T12:55:05.064Z,234
2023-04-11T12:59:08.110Z,225
2023-04-11T13:03:11.564Z,258
2023-04-11T13:05:13.277Z,233
2023-04-11T13:09:15.308Z,250
2023-04-11T13:13:18.982Z,221
2023-04-11T13:15:19.714Z,243
2023-04-11T13:19:22.484Z,236
2023-04-11T13:25:26.364Z,112
2023-04-11T13:29:29.110Z,231
2023-04-11T13:31:30.740Z,220
2023-04-11T13:35:34.127Z,218
2023-04-11T13:41:38.926Z,210
2023-04-11T13:45:41.523Z,230
2023-04-11T13:47:42.767Z,227
2023-04-11T13:51:46.515Z,228
2023-04-11T13:55:49.781Z,360
2023-04-11T13:57:51.137Z,263
2023-04-11T14:01:54.633Z,218
2023-04-11T14:07:59.731Z,286
2023-04-11T14:10:00.736Z,287
2023-04-11T14:14:03.267Z,101
2023-04-11T14:18:05.805Z,138
2023-04-11T14:24:09.351Z,239
2023-04-11T14:30:13.605Z,155
2023-04-11T14:34:17.092Z,225
2023-04-11T14:38:19.247Z,211
2023-04-11T14:40:20.661Z,211
2023-04-11T14:44:23.405Z,211
2023-04-11T14:48:26.919Z,137
2023-04-11T14:50:29.014Z,177
2023-04-11T14:54:31.433Z,215
2023-04-11T14:56:33.241Z,215
2023-04-11T14:58:34.148Z,333
2023-04-11T15:00:35.763Z,333
2023-04-11T15:06:40.090Z,305
2023-04-11T15:12:43.554Z,305
2023-04-11T15:16:45.774Z,231
2023-04-11T15:22:50.271Z,203
2023-04-11T15:26:53.407Z,212
2023-04-11T15:28:54.687Z,212
2023-04-11T15:32:57.275Z,175
2023-04-11T15:36:59.360Z,179
2023-04-11T15:39:00.711Z,211
2023-04-11T15:43:04.211Z,231
2023-04-11T15:49:08.099Z,360
2023-04-11T15:53:11.088Z,249
2023-04-11T15:55:12.460Z,267
2023-04-11T15:59:15.672Z,217
2023-04-11T16:05:20.350Z,173
2023-04-11T16:09:22.873Z,210
2023-04-11T16:11:24.482Z,230
2023-04-11T16:15:27.016Z,235
2023-04-11T16:19:29.625Z,208
2023-04-11T16:21:30.986Z,189
2023-04-11T16:25:33.478Z,215
2023-04-11T16:31:36.753Z,213
2023-04-11T16:35:39.032Z,360
2023-04-11T16:37:40.609Z,221
2023-04-11T16:41:43.643Z,223
2023-04-11T16:47:46.881Z,209
2023-04-11T16:53:51.213Z,218
2023-04-11T16:57:53.745Z,221
2023-04-11T17:03:57.867Z,209
2023-04-11T17:08:00.568Z,210
2023-04-11T17:10:02.034Z,217
2023-04-11T17:14:04.733Z,245
2023-04-11T17:18:07.299Z,147
2023-04-11T17:20:08.707Z,199
2023-04-11T17:24:11.744Z,201
2023-04-11T17:30:15.844Z,201
2023-04-11T17:36:20.069Z,201
2023-04-11T17:40:22.817Z,201
2023-04-11T17:46:27.658Z,201
2023-04-11T17:50:30.120Z,201
2023-04-11T17:52:31.989Z,201
2023-04-11T17:56:35.373Z,201
2023-04-11T18:00:45.193Z,201
2023-04-11T18:02:39.303Z,201
2023-04-11T18:06:41.628Z,201
2023-04-11T18:12:45.790Z,201
2023-04-11T18:16:49.178Z,201
2023-04-11T18:18:50.527Z,201
2023-04-11T18:22:53.104Z,201
2023-04-11T18:28:57.442Z,201
2023-04-11T18:32:59.912Z,201
2023-04-11T18:35:01.785Z,201
2023-04-11T18:39:04.909Z,74
2023-04-11T18:43:07.818Z,167
2023-04-11T18:45:09.044Z,167
2023-04-11T18:49:13.110Z,167
2023-04-11T18:55:15.722Z,357
2023-04-11T18:59:18.904Z,357
2023-04-11T19:01:20.131Z,357
2023-04-11T19:05:23.891Z,357
2023-04-11T19:11:27.733Z,357
2023-04-11T19:16:14.452Z,357
2023-04-11T19:22:19.003Z,359
2023-04-11T19:26:21.229Z,358
2023-04-11T19:28:22.630Z,358
2023-04-11T19:32:25.554Z,358
2023-04-11T19:36:27.672Z,358
2023-04-11T19:38:29.577Z,358
2023-04-11T19:42:33.016Z,358
2023-04-11T19:48:36.949Z,358
2023-04-11T19:54:41.292Z,360
2023-04-11T19:58:43.918Z,358
2023-04-11T20:04:48.578Z,358
2023-04-11T20:08:51.669Z,358
2023-04-11T20:10:52.671Z,358
2023-04-11T20:14:56.526Z,359
2023-04-11T20:19:00.053Z,359
2023-04-11T20:21:01.884Z,359
2023-04-11T20:25:04.511Z,360
2023-04-11T20:31:08.715Z,359
2023-04-11T20:35:11.601Z,359
2023-04-11T20:37:13.036Z,359
2023-04-11T20:41:16.511Z,359
2023-04-11T20:47:21.021Z,359
2023-04-11T20:51:23.914Z,359
2023-04-11T20:53:26.817Z,359
2023-04-11T20:57:28.263Z,359
2023-04-11T21:01:31.800Z,359
2023-04-11T21:03:33.211Z,359
2023-04-11T21:07:36.888Z,359
2023-04-11T21:13:40.784Z,359
2023-04-11T21:17:43.832Z,359
2023-04-11T21:19:45.003Z,359
2023-04-11T21:23:47.738Z,359
2023-04-11T21:29:52.360Z,359
2023-04-11T21:33:54.641Z,359
2023-04-11T21:35:55.920Z,359
2023-04-11T21:39:58.741Z,359
2023-04-11T21:44:01.274Z,359
2023-04-11T21:46:02.941Z,359
2023-04-11T21:50:05.874Z,359
2023-04-11T21:52:07.820Z,359
2023-04-11T21:56:10.745Z,359
2023-04-11T22:02:15.435Z,359
2023-04-11T22:06:18.648Z,359
2023-04-11T22:08:19.643Z,359
2023-04-11T22:12:22.935Z,359
2023-04-11T22:16:26.667Z,359
2023-04-11T22:18:27.946Z,359
2023-04-11T22:22:30.781Z,359
2023-04-11T22:28:35.040Z,359
2023-04-11T22:32:37.780Z,359
2023-04-11T22:34:39.618Z,359
2023-04-11T22:38:42.490Z,359
2023-04-11T22:44:47.021Z,359
2023-04-11T22:48:50.087Z,360
2023-04-11T22:50:51.175Z,359
2023-04-11T22:54:54.739Z,359
2023-04-11T22:58:57.706Z,359
2023-04-11T23:00:58.819Z,359
2023-04-11T23:05:00.977Z,359
2023-04-11T23:09:04.263Z,359
2023-04-11T23:11:05.685Z,359
2023-04-11T23:15:09.174Z,359
2023-04-11T23:17:10.622Z,359
2023-04-11T23:19:11.963Z,359
2023-04-11T23:21:13.766Z,359
2023-04-11T23:27:18.023Z,359
2023-04-11T23:33:23.005Z,359
2023-04-11T23:37:25.907Z,359
2023-04-11T23:43:29.801Z,359
2023-04-11T23:47:32.939Z,359
2023-04-11T23:49:34.466Z,359
2023-04-11T23:53:37.783Z,359
2023-04-11T23:57:40.635Z,359
2023-04-11T23:59:41.646Z,359
